createdAt,value
2023-05-05T00:02:18.673Z,90.49
2023-05-05T00:04:46.879Z,91.12
2023-05-05T00:07:15.096Z,91.43
2023-05-05T00:09:43.266Z,91.69
2023-05-05T00:12:11.455Z,91.34
2023-05-05T00:14:39.562Z,91.43
2023-05-05T00:17:07.816Z,90.93
2023-05-05T00:19:36.008Z,91.51
2023-05-05T00:22:04.080Z,91.28
2023-05-05T00:24:32.287Z,91.76
2023-05-05T00:27:02.115Z,91.04
2023-05-05T00:29:30.248Z,92.08
2023-05-05T00:31:58.559Z,92.58
2023-05-05T00:34:26.629Z,91.45
2023-05-05T00:36:54.896Z,89.76
2023-05-05T00:39:23.550Z,92.05
2023-05-05T00:41:51.633Z,92.19
2023-05-05T00:44:34.829Z,92.15
2023-05-05T00:47:03.668Z,91.63
2023-05-05T00:49:32.647Z,91.11
2023-05-05T00:52:01.038Z,91.03
2023-05-05T00:54:29.300Z,90.88
2023-05-05T00:56:57.455Z,90.77
2023-05-05T00:59:25.949Z,89.95
2023-05-05T01:01:54.054Z,89.86
2023-05-05T01:04:22.240Z,89.17
2023-05-05T01:07:09.109Z,89.22
2023-05-05T01:09:43.255Z,89.07
2023-05-05T01:12:30.264Z,90.01
2023-05-05T01:15:07.646Z,90.22
2023-05-05T01:17:42.103Z,90.41
2023-05-05T01:20:21.769Z,90.56
2023-05-05T01:23:01.542Z,89.32
2023-05-05T01:25:47.983Z,89.06
2023-05-05T01:28:28.440Z,89.75
2023-05-05T01:31:00.645Z,90.04
2023-05-05T01:33:32.020Z,91.20
2023-05-05T01:36:04.273Z,91.86
2023-05-05T01:38:38.322Z,91.47
2023-05-05T01:41:15.589Z,91.37
2023-05-05T01:43:46.233Z,91.60
2023-05-05T01:46:15.373Z,91.88
2023-05-05T01:48:44.327Z,90.89
2023-05-05T01:51:12.901Z,90.61
2023-05-05T01:53:42.320Z,90.12
2023-05-05T01:56:11.804Z,90.36
2023-05-05T01:58:41.836Z,89.61
2023-05-05T02:01:10.434Z,89.88
2023-05-05T02:03:39.741Z,89.71
2023-05-05T02:06:08.614Z,89.37
2023-05-05T02:08:37.557Z,89.12
2023-05-05T02:11:05.797Z,90.13
2023-05-05T02:13:33.876Z,91.09
2023-05-05T02:16:03.136Z,91.31
2023-05-05T02:18:35.695Z,91.72
2023-05-05T02:21:03.930Z,92.13
2023-05-05T02:23:32.005Z,92.72
2023-05-05T02:26:03.771Z,91.68
2023-05-05T02:28:46.422Z,91.17
2023-05-05T02:31:16.528Z,91.38
2023-05-05T02:33:46.941Z,91.62
2023-05-05T02:36:18.034Z,91.95
2023-05-05T02:38:54.797Z,91.95
2023-05-05T02:41:25.575Z,93.30
2023-05-05T02:43:55.003Z,92.25
2023-05-05T02:46:23.490Z,92.13
2023-05-05T02:48:51.687Z,92.58
2023-05-05T02:51:19.848Z,92.08
2023-05-05T02:53:48.026Z,91.18
2023-05-05T02:56:26.964Z,89.53
2023-05-05T02:59:00.708Z,89.30
2023-05-05T03:01:28.756Z,89.69
2023-05-05T03:04:05.552Z,90.35
2023-05-05T03:06:39.503Z,89.83
2023-05-05T03:09:08.170Z,89.48
2023-05-05T03:11:40.445Z,90.00
2023-05-05T03:14:18.528Z,89.46
2023-05-05T03:16:47.903Z,88.20
2023-05-05T03:19:18.585Z,88.31
2023-05-05T03:21:47.876Z,87.69
2023-05-05T03:24:19.901Z,87.92
2023-05-05T03:26:57.822Z,89.34
2023-05-05T03:29:29.652Z,89.38
2023-05-05T03:31:58.918Z,89.76
2023-05-05T03:34:27.238Z,90.47
2023-05-05T03:36:55.647Z,91.00
2023-05-05T03:39:23.962Z,90.53
2023-05-05T03:41:52.090Z,89.76
2023-05-05T03:44:20.612Z,87.83
2023-05-05T03:46:48.944Z,88.95
2023-05-05T03:49:17.279Z,90.94
2023-05-05T03:51:47.428Z,91.21
2023-05-05T03:54:16.778Z,90.90
2023-05-05T03:56:44.830Z,91.46
2023-05-05T03:59:12.963Z,93.75
2023-05-05T04:01:41.690Z,92.83
2023-05-05T04:04:09.989Z,92.24
2023-05-05T04:06:38.128Z,91.41
2023-05-05T04:09:06.639Z,91.29
2023-05-05T04:11:34.756Z,90.94
2023-05-05T04:14:03.209Z,88.40
2023-05-05T04:16:31.459Z,89.22
2023-05-05T04:19:00.244Z,90.98
2023-05-05T04:21:28.611Z,92.04
2023-05-05T04:23:57.872Z,92.43
2023-05-05T04:26:27.324Z,94.99
2023-05-05T04:28:55.906Z,92.49
2023-05-05T04:31:24.353Z,92.88
2023-05-05T04:33:52.669Z,91.22
2023-05-05T04:36:21.026Z,90.86
2023-05-05T04:38:49.154Z,90.96
2023-05-05T04:41:17.307Z,91.00
2023-05-05T04:43:45.710Z,93.44
2023-05-05T04:46:13.801Z,89.03
2023-05-05T04:48:41.972Z,91.66
2023-05-05T04:51:10.277Z,91.59
2023-05-05T04:53:38.515Z,91.30
2023-05-05T04:56:06.631Z,89.50
2023-05-05T04:58:34.706Z,90.98
2023-05-05T05:01:03.520Z,90.62
2023-05-05T05:03:32.350Z,90.25
2023-05-05T05:06:00.531Z,89.44
2023-05-05T05:08:28.687Z,89.16
2023-05-05T05:10:56.659Z,88.78
2023-05-05T05:13:24.844Z,89.28
2023-05-05T05:15:52.924Z,86.91
2023-05-05T05:18:20.974Z,85.82
2023-05-05T05:20:49.579Z,85.85
2023-05-05T05:23:17.685Z,85.62
2023-05-05T05:25:46.214Z,84.48
2023-05-05T05:28:14.815Z,84.86
2023-05-05T05:30:47.556Z,84.87
2023-05-05T05:33:15.956Z,82.34
2023-05-05T05:35:44.460Z,81.16
2023-05-05T05:38:12.782Z,79.06
2023-05-05T05:40:40.942Z,80.30
2023-05-05T05:43:09.188Z,80.84
2023-05-05T05:45:37.820Z,80.93
2023-05-05T05:48:06.912Z,81.40
2023-05-05T05:50:36.027Z,81.59
2023-05-05T05:53:04.162Z,80.48
2023-05-05T05:55:32.417Z,79.54
2023-05-05T05:58:00.826Z,79.90
2023-05-05T06:00:29.268Z,78.14
2023-05-05T06:03:01.451Z,77.77
2023-05-05T06:05:31.900Z,78.18
2023-05-05T06:08:00.163Z,79.00
2023-05-05T06:10:28.805Z,79.01
2023-05-05T06:13:06.303Z,78.57
2023-05-05T06:15:34.641Z,77.55
2023-05-05T06:18:03.236Z,77.81
2023-05-05T06:20:32.028Z,75.35
2023-05-05T06:23:00.561Z,74.15
2023-05-05T06:25:29.285Z,75.10
2023-05-05T06:27:57.410Z,77.33
2023-05-05T06:30:26.338Z,77.50
2023-05-05T06:32:54.455Z,76.70
2023-05-05T06:35:22.675Z,77.08
2023-05-05T06:37:50.750Z,75.74
2023-05-05T06:40:18.880Z,71.17
2023-05-05T06:42:46.916Z,71.24
2023-05-05T06:45:18.407Z,70.61
2023-05-05T06:47:46.489Z,71.35
2023-05-05T06:50:14.797Z,71.01
2023-05-05T06:52:42.807Z,64.66
2023-05-05T06:55:10.849Z,69.17
2023-05-05T06:57:38.938Z,70.27
2023-05-05T07:00:11.276Z,69.12
2023-05-05T07:02:40.193Z,62.40
2023-05-05T07:05:08.504Z,63.04
2023-05-05T07:07:37.196Z,64.05
2023-05-05T07:10:05.510Z,63.51
2023-05-05T07:12:33.719Z,58.22
2023-05-05T07:15:09.368Z,61.14
2023-05-05T07:17:43.910Z,60.44
2023-05-05T07:20:12.211Z,62.34
2023-05-05T07:22:40.241Z,59.66
2023-05-05T07:25:08.574Z,61.57
2023-05-05T07:27:37.397Z,62.03
2023-05-05T07:30:10.909Z,53.52
2023-05-05T07:32:41.431Z,56.92
2023-05-05T07:35:09.652Z,57.44
2023-05-05T07:37:37.752Z,59.62
2023-05-05T07:40:06.414Z,58.00
2023-05-05T07:42:34.648Z,56.34
2023-05-05T07:45:02.794Z,54.68
2023-05-05T07:47:30.929Z,57.09
2023-05-05T07:49:59.140Z,59.42
2023-05-05T07:52:43.619Z,58.98
2023-05-05T07:55:14.585Z,59.93
2023-05-05T07:57:42.748Z,60.51
2023-05-05T08:00:11.613Z,60.44
2023-05-05T08:02:42.693Z,61.13
2023-05-05T08:05:11.471Z,59.23
2023-05-05T08:07:41.673Z,57.75
2023-05-05T08:10:13.293Z,56.98
2023-05-05T08:12:41.558Z,58.74
2023-05-05T08:15:10.047Z,57.71
2023-05-05T08:17:46.277Z,58.66
2023-05-05T08:20:14.730Z,53.74
2023-05-05T08:22:43.107Z,53.87
2023-05-05T08:25:11.419Z,57.59
2023-05-05T08:27:40.344Z,54.86
2023-05-05T08:30:09.178Z,53.22
2023-05-05T08:32:38.437Z,52.46
2023-05-05T08:35:07.455Z,53.68
2023-05-05T08:37:35.963Z,49.38
2023-05-05T08:40:04.721Z,50.51
2023-05-05T08:42:38.628Z,53.79
2023-05-05T08:45:08.679Z,49.71
2023-05-05T08:47:37.521Z,53.50
2023-05-05T08:50:06.276Z,51.62
2023-05-05T08:52:42.228Z,53.24
2023-05-05T08:55:15.526Z,52.00
2023-05-05T08:57:51.713Z,49.13
2023-05-05T09:00:20.588Z,48.04
2023-05-05T09:02:49.161Z,48.25
2023-05-05T09:05:18.008Z,48.74
2023-05-05T09:07:47.432Z,47.16
2023-05-05T09:10:15.750Z,47.16
2023-05-05T09:12:43.961Z,46.52
2023-05-05T09:15:13.140Z,46.03
2023-05-05T09:17:41.844Z,46.85
2023-05-05T09:20:10.961Z,49.32
2023-05-05T09:22:46.309Z,50.55
2023-05-05T09:25:15.278Z,51.36
2023-05-05T09:27:47.387Z,51.05
2023-05-05T09:30:16.813Z,49.16
2023-05-05T09:32:46.222Z,49.42
2023-05-05T09:35:14.921Z,48.29
2023-05-05T09:37:43.247Z,49.56
2023-05-05T09:40:13.372Z,47.84
2023-05-05T09:42:41.580Z,49.25
2023-05-05T09:45:15.524Z,49.09
2023-05-05T09:47:43.612Z,50.72
2023-05-05T09:50:19.142Z,52.53
2023-05-05T09:52:56.212Z,52.25
2023-05-05T09:55:25.168Z,53.57
2023-05-05T09:57:53.392Z,53.13
2023-05-05T10:00:22.079Z,52.19
2023-05-05T10:02:50.278Z,51.95
2023-05-05T10:05:18.849Z,50.66
2023-05-05T10:07:48.003Z,52.38
2023-05-05T10:10:17.664Z,50.93
2023-05-05T10:12:49.776Z,50.43
2023-05-05T10:15:18.296Z,52.23
2023-05-05T10:18:02.152Z,51.22
2023-05-05T10:20:36.518Z,52.02
2023-05-05T10:23:06.860Z,50.55
2023-05-05T10:25:39.316Z,52.89
2023-05-05T10:28:09.947Z,50.40
2023-05-05T10:30:42.213Z,50.52
2023-05-05T10:33:31.009Z,50.49
2023-05-05T10:36:02.617Z,52.00
2023-05-05T10:38:31.754Z,51.54
2023-05-05T10:41:01.629Z,53.00
2023-05-05T10:43:30.816Z,50.64
2023-05-05T10:45:59.331Z,51.36
2023-05-05T10:48:33.624Z,50.81
2023-05-05T10:51:10.634Z,50.21
2023-05-05T10:53:44.557Z,50.37
2023-05-05T10:56:12.676Z,51.50
2023-05-05T10:58:55.387Z,51.35
2023-05-05T11:01:34.133Z,51.45
2023-05-05T11:04:21.944Z,51.73
2023-05-05T11:07:09.639Z,50.42
2023-05-05T11:09:54.856Z,50.77
2023-05-05T11:12:23.055Z,50.50
2023-05-05T11:15:09.605Z,51.17
2023-05-05T11:17:47.268Z,50.11
2023-05-05T11:20:15.305Z,50.89
2023-05-05T11:23:02.193Z,51.24
2023-05-05T11:25:36.698Z,51.28
2023-05-05T11:28:05.232Z,51.13
2023-05-05T11:30:33.463Z,51.68
2023-05-05T11:33:20.142Z,51.05
2023-05-05T11:35:57.372Z,51.30
2023-05-05T11:38:41.480Z,52.19
2023-05-05T11:41:18.401Z,49.30
2023-05-05T11:43:46.643Z,48.58
2023-05-05T11:46:15.329Z,48.59
2023-05-05T11:48:47.129Z,48.35
2023-05-05T11:51:16.427Z,47.65
2023-05-05T11:53:48.326Z,46.63
2023-05-05T11:56:21.846Z,48.42
2023-05-05T11:59:04.889Z,48.06
2023-05-05T12:01:33.156Z,47.27
2023-05-05T12:04:01.725Z,47.30
2023-05-05T12:06:32.487Z,47.68
2023-05-05T12:09:01.288Z,48.07
2023-05-05T12:11:29.334Z,49.19
2023-05-05T12:14:11.912Z,49.31
2023-05-05T12:16:40.152Z,49.44
2023-05-05T12:19:08.713Z,49.29
2023-05-05T12:21:36.762Z,50.23
2023-05-05T12:24:05.012Z,49.39
2023-05-05T12:26:33.109Z,49.92
2023-05-05T12:29:01.383Z,49.88
2023-05-05T12:31:39.540Z,50.37
2023-05-05T12:34:08.959Z,49.79
2023-05-05T12:36:37.616Z,50.23
2023-05-05T12:39:05.763Z,50.35
2023-05-05T12:41:34.408Z,50.21
2023-05-05T12:44:05.302Z,47.20
2023-05-05T12:46:44.591Z,48.46
2023-05-05T12:49:12.658Z,48.96
2023-05-05T12:51:52.634Z,47.93
2023-05-05T12:54:20.709Z,46.93
2023-05-05T12:56:48.703Z,46.94
2023-05-05T12:59:22.833Z,45.69
2023-05-05T13:01:52.102Z,46.50
2023-05-05T13:04:21.510Z,46.45
2023-05-05T13:06:51.396Z,46.84
2023-05-05T13:09:27.897Z,47.20
2023-05-05T13:11:56.502Z,46.23
2023-05-05T13:14:24.566Z,46.77
2023-05-05T13:16:52.967Z,47.32
2023-05-05T13:19:21.073Z,46.72
2023-05-05T13:21:49.210Z,46.51
2023-05-05T13:26:48.915Z,48.12
2023-05-05T13:29:17.194Z,49.46
2023-05-05T13:31:45.958Z,48.62
2023-05-05T13:34:14.281Z,48.76
2023-05-05T13:36:42.391Z,48.89
2023-05-05T13:39:10.588Z,49.53
2023-05-05T13:41:38.652Z,49.76
2023-05-05T13:44:06.714Z,51.39
2023-05-05T13:46:34.852Z,50.52
2023-05-05T13:49:02.962Z,49.89
2023-05-05T13:51:31.179Z,48.82
2023-05-05T13:53:59.231Z,48.50
2023-05-05T13:56:27.939Z,48.33
2023-05-05T13:58:56.053Z,50.89
2023-05-05T14:01:24.152Z,49.76
2023-05-05T14:03:52.261Z,51.74
2023-05-05T14:06:20.365Z,49.58
2023-05-05T14:08:48.596Z,49.32
2023-05-05T14:11:18.261Z,47.98
2023-05-05T14:13:46.707Z,49.58
2023-05-05T14:16:14.928Z,47.58
2023-05-05T14:18:43.251Z,46.45
2023-05-05T14:21:11.400Z,48.07
2023-05-05T14:23:39.410Z,47.54
2023-05-05T14:26:09.132Z,48.33
2023-05-05T14:28:37.329Z,48.58
2023-05-05T14:31:05.488Z,49.95
2023-05-05T14:33:33.587Z,49.11
2023-05-05T14:36:01.675Z,49.66
2023-05-05T14:38:29.801Z,50.34
2023-05-05T14:40:57.875Z,50.78
2023-05-05T14:43:25.964Z,51.35
2023-05-05T14:45:54.161Z,51.35
2023-05-05T14:48:22.573Z,51.47
2023-05-05T14:50:50.936Z,53.27
2023-05-05T14:53:19.455Z,53.40
2023-05-05T14:55:47.509Z,53.13
2023-05-05T14:58:15.792Z,53.53
2023-05-05T15:00:43.819Z,56.07
2023-05-05T15:03:11.851Z,54.86
2023-05-05T15:05:39.941Z,54.67
2023-05-05T15:08:08.037Z,55.48
2023-05-05T15:10:36.083Z,56.31
2023-05-05T15:13:04.211Z,56.88
2023-05-05T15:15:32.282Z,57.60
2023-05-05T15:18:00.428Z,58.31
2023-05-05T15:20:28.601Z,57.24
2023-05-05T15:22:57.045Z,58.42
2023-05-05T15:25:25.186Z,56.45
2023-05-05T15:27:53.367Z,57.65
2023-05-05T15:30:21.438Z,58.13
2023-05-05T15:32:49.546Z,60.58
2023-05-05T15:35:17.805Z,58.25
2023-05-05T15:37:46.026Z,57.93
2023-05-05T15:40:14.022Z,56.94
2023-05-05T15:42:42.224Z,59.47
2023-05-05T15:45:14.945Z,58.44
2023-05-05T15:47:43.026Z,58.04
2023-05-05T15:50:11.103Z,57.33
2023-05-05T15:52:39.178Z,56.93
2023-05-05T15:55:07.859Z,56.32
2023-05-05T15:57:36.782Z,56.49
2023-05-05T16:00:05.097Z,56.41
2023-05-05T16:02:35.805Z,55.31
2023-05-05T16:05:04.876Z,55.85
2023-05-05T16:07:32.976Z,56.08
2023-05-05T16:10:01.060Z,56.67
2023-05-05T16:12:29.180Z,56.68
2023-05-05T16:14:57.403Z,56.38
2023-05-05T16:17:25.572Z,57.49
2023-05-05T16:19:53.688Z,57.07
2023-05-05T16:22:21.699Z,57.14
2023-05-05T16:24:49.801Z,58.40
2023-05-05T16:27:17.937Z,56.81
2023-05-05T16:29:46.031Z,59.25
2023-05-05T16:32:14.110Z,58.93
2023-05-05T16:34:42.243Z,60.19
2023-05-05T16:37:10.374Z,61.64
2023-05-05T16:39:40.384Z,62.54
2023-05-05T16:42:08.623Z,63.97
2023-05-05T16:44:36.712Z,65.72
2023-05-05T16:47:04.886Z,65.16
2023-05-05T16:49:32.992Z,68.28
2023-05-05T16:52:01.091Z,68.83
2023-05-05T16:54:29.079Z,68.61
2023-05-05T16:56:57.062Z,67.86
2023-05-05T16:59:25.067Z,68.22
2023-05-05T17:01:53.187Z,68.54
2023-05-05T17:04:21.322Z,70.43
2023-05-05T17:06:49.681Z,69.68
2023-05-05T17:09:17.979Z,70.45
2023-05-05T17:11:46.102Z,70.64
2023-05-05T17:14:14.186Z,70.57
2023-05-05T17:16:42.519Z,68.06
2023-05-05T17:19:10.605Z,69.95
2023-05-05T17:21:38.699Z,70.82
2023-05-05T17:24:07.145Z,70.44
2023-05-05T17:26:35.267Z,71.09
2023-05-05T17:29:03.339Z,71.94
2023-05-05T17:31:31.468Z,72.85
2023-05-05T17:33:59.729Z,74.18
2023-05-05T17:36:27.803Z,71.64
2023-05-05T17:38:56.083Z,75.41
2023-05-05T17:41:25.695Z,68.00
2023-05-05T17:43:53.852Z,69.26
2023-05-05T17:46:21.959Z,67.19
2023-05-05T17:48:50.126Z,71.42
2023-05-05T17:51:18.206Z,76.26
2023-05-05T17:53:46.276Z,77.30
2023-05-05T17:56:14.341Z,78.06
2023-05-05T17:58:42.437Z,74.93
2023-05-05T18:01:19.480Z,75.31
2023-05-05T18:03:47.602Z,72.16
2023-05-05T18:06:15.871Z,71.56
2023-05-05T18:08:44.780Z,75.99
2023-05-05T18:11:12.895Z,77.86
2023-05-05T18:13:40.973Z,76.84
2023-05-05T18:16:09.015Z,78.64
2023-05-05T18:18:37.308Z,77.52
2023-05-05T18:21:05.364Z,74.99
2023-05-05T18:23:33.571Z,71.60
2023-05-05T18:26:01.710Z,74.45
2023-05-05T18:28:29.716Z,76.94
2023-05-05T18:30:57.815Z,77.68
2023-05-05T18:33:26.678Z,80.11
2023-05-05T18:35:54.839Z,79.93
2023-05-05T18:38:22.955Z,81.05
2023-05-05T18:40:51.068Z,74.61
2023-05-05T18:43:19.151Z,72.19
2023-05-05T18:45:47.250Z,72.50
2023-05-05T18:48:15.495Z,72.78
2023-05-05T18:50:43.574Z,78.21
2023-05-05T18:53:13.732Z,81.04
2023-05-05T18:55:43.470Z,80.12
2023-05-05T18:58:11.556Z,79.39
2023-05-05T19:00:39.586Z,80.12
2023-05-05T19:03:07.864Z,80.87
2023-05-05T19:05:36.161Z,80.58
2023-05-05T19:08:04.285Z,79.12
2023-05-05T19:10:32.424Z,75.84
2023-05-05T19:13:00.950Z,75.28
2023-05-05T19:15:29.395Z,76.26
2023-05-05T19:17:57.543Z,79.47
2023-05-05T19:20:25.695Z,80.47
2023-05-05T19:22:53.695Z,80.23
2023-05-05T19:25:21.874Z,82.69
2023-05-05T19:27:49.916Z,83.33
2023-05-05T19:30:18.027Z,83.16
2023-05-05T19:32:46.241Z,82.56
2023-05-05T19:35:14.411Z,81.58
2023-05-05T19:37:42.517Z,77.56
2023-05-05T19:40:11.169Z,76.71
2023-05-05T19:42:39.814Z,77.71
2023-05-05T19:45:08.122Z,80.68
2023-05-05T19:47:36.399Z,81.75
2023-05-05T19:50:04.748Z,82.82
2023-05-05T19:52:32.846Z,80.89
2023-05-05T19:55:01.158Z,78.21
2023-05-05T19:57:29.531Z,82.11
2023-05-05T19:59:57.638Z,84.39
2023-05-05T20:02:27.225Z,81.54
2023-05-05T20:04:55.468Z,80.13
2023-05-05T20:07:23.713Z,81.56
2023-05-05T20:09:51.771Z,83.00
2023-05-05T20:12:21.984Z,82.32
2023-05-05T20:14:50.206Z,84.85
2023-05-05T20:17:20.420Z,84.17
2023-05-05T20:19:48.517Z,83.71
2023-05-05T20:22:17.156Z,82.53
2023-05-05T20:24:45.163Z,84.19
2023-05-05T20:27:13.256Z,83.59
2023-05-05T20:29:41.393Z,77.76
2023-05-05T20:32:09.473Z,76.51
2023-05-05T20:34:38.931Z,77.04
2023-05-05T20:37:07.055Z,77.91
2023-05-05T20:39:35.231Z,76.83
2023-05-05T20:42:03.346Z,77.52
2023-05-05T20:44:31.505Z,76.53
2023-05-05T20:46:59.714Z,75.38
2023-05-05T20:49:27.950Z,76.92
2023-05-05T20:51:56.044Z,77.04
2023-05-05T20:54:24.193Z,76.11
2023-05-05T20:56:53.266Z,78.75
2023-05-05T20:59:21.278Z,77.36
2023-05-05T21:01:49.355Z,79.94
2023-05-05T21:04:17.523Z,80.79
2023-05-05T21:06:46.008Z,82.60
2023-05-05T21:09:14.125Z,82.94
2023-05-05T21:11:42.497Z,84.06
2023-05-05T21:14:11.064Z,84.49
2023-05-05T21:16:39.164Z,83.59
2023-05-05T21:19:07.268Z,84.53
2023-05-05T21:21:35.316Z,85.28
2023-05-05T21:24:04.908Z,85.05
2023-05-05T21:26:34.365Z,80.85
2023-05-05T21:29:02.419Z,80.10
2023-05-05T21:31:30.549Z,80.60
2023-05-05T21:33:58.641Z,80.13
2023-05-05T21:36:27.480Z,79.49
2023-05-05T21:38:58.372Z,80.32
2023-05-05T21:41:27.979Z,83.14
2023-05-05T21:43:56.177Z,83.19
2023-05-05T21:46:24.200Z,83.76
2023-05-05T21:48:52.226Z,83.27
2023-05-05T21:51:20.388Z,85.77
2023-05-05T21:53:48.447Z,84.38
2023-05-05T21:56:16.758Z,84.14
2023-05-05T21:58:44.928Z,84.51
2023-05-05T22:01:13.028Z,85.60
2023-05-05T22:03:43.654Z,82.07
2023-05-05T22:06:12.488Z,81.19
2023-05-05T22:08:40.591Z,81.07
2023-05-05T22:11:08.676Z,80.40
2023-05-05T22:13:37.693Z,78.32
2023-05-05T22:16:06.498Z,77.52
2023-05-05T22:18:35.246Z,77.76
2023-05-05T22:21:03.697Z,80.49
2023-05-05T22:23:32.111Z,83.80
2023-05-05T22:26:00.179Z,85.38
2023-05-05T22:28:28.337Z,85.31
2023-05-05T22:30:56.471Z,85.32
2023-05-05T22:33:24.746Z,84.10
2023-05-05T22:35:53.394Z,84.06
2023-05-05T22:38:21.521Z,83.46
2023-05-05T22:40:49.601Z,83.94
2023-05-05T22:43:17.735Z,82.35
2023-05-05T22:45:45.879Z,84.93
2023-05-05T22:48:13.913Z,86.68
2023-05-05T22:50:42.119Z,86.71
2023-05-05T22:53:10.240Z,85.94
2023-05-05T22:55:38.222Z,86.51
2023-05-05T22:58:06.545Z,86.53
2023-05-05T23:00:34.606Z,86.29
2023-05-05T23:03:02.570Z,83.07
2023-05-05T23:05:30.719Z,80.14
2023-05-05T23:08:01.298Z,80.14
2023-05-05T23:10:29.853Z,81.89
2023-05-05T23:12:57.901Z,84.40
2023-05-05T23:15:26.160Z,83.95
2023-05-05T23:17:54.361Z,87.16
2023-05-05T23:20:22.538Z,86.57
2023-05-05T23:22:50.765Z,89.82
2023-05-05T23:25:18.971Z,89.59
2023-05-05T23:27:48.045Z,88.66
2023-05-05T23:30:16.385Z,88.42
2023-05-05T23:32:45.132Z,89.91
2023-05-05T23:35:13.313Z,88.27
2023-05-05T23:37:41.634Z,86.54
2023-05-05T23:40:09.808Z,87.61
2023-05-05T23:42:37.913Z,88.56
2023-05-05T23:45:06.241Z,86.67
2023-05-05T23:47:34.393Z,88.30
2023-05-05T23:50:02.764Z,85.52
2023-05-05T23:52:30.810Z,82.96
2023-05-05T23:54:58.913Z,83.21
2023-05-05T23:57:26.963Z,85.39
2023-05-05T23:59:55.074Z,85.51
